createdAt,value
2023-05-07T00:02:16.687Z,4.33
2023-05-07T00:04:42.922Z,5.37
2023-05-07T00:07:09.727Z,8.93
2023-05-07T00:09:36.828Z,4.50
2023-05-07T00:12:03.116Z,3.50
2023-05-07T00:14:29.492Z,6.90
2023-05-07T00:16:56.093Z,6.50
2023-05-07T00:19:22.336Z,6.77
2023-05-07T00:21:48.549Z,7.33
2023-05-07T00:24:15.372Z,5.50
2023-05-07T00:26:44.042Z,8.83
2023-05-07T00:29:13.192Z,6.83
2023-05-07T00:31:39.427Z,4.97
2023-05-07T00:34:06.080Z,7.60
2023-05-07T00:36:32.590Z,8.07
2023-05-07T00:39:00.542Z,6.87
2023-05-07T00:41:27.374Z,9.23
2023-05-07T00:43:53.596Z,4.43
2023-05-07T00:46:21.076Z,5.10
2023-05-07T00:48:47.472Z,7.27
2023-05-07T00:51:13.886Z,4.73
2023-05-07T00:53:40.228Z,8.10
2023-05-07T00:56:07.429Z,6.47
2023-05-07T00:58:34.640Z,4.03
2023-05-07T01:01:01.226Z,4.43
2023-05-07T01:03:27.511Z,4.20
2023-05-07T01:05:54.589Z,7.17
2023-05-07T01:08:22.789Z,4.40
2023-05-07T01:10:49.171Z,4.60
2023-05-07T01:13:15.878Z,4.10
2023-05-07T01:15:43.341Z,4.40
2023-05-07T01:18:09.643Z,5.53
2023-05-07T01:20:35.871Z,5.40
2023-05-07T01:23:03.825Z,7.23
2023-05-07T01:25:30.819Z,8.90
2023-05-07T01:27:57.033Z,6.97
2023-05-07T01:30:23.269Z,5.40
2023-05-07T01:32:52.876Z,6.70
2023-05-07T01:35:20.302Z,4.17
2023-05-07T01:42:40.315Z,4.40
2023-05-07T01:45:08.365Z,7.17
2023-05-07T01:47:34.681Z,7.77
2023-05-07T01:50:01.245Z,8.93
2023-05-07T01:52:28.422Z,8.93
2023-05-07T01:54:54.671Z,5.77
2023-05-07T01:57:21.018Z,6.53
2023-05-07T01:59:47.541Z,4.63
2023-05-07T02:02:14.581Z,5.60
2023-05-07T02:04:41.853Z,6.50
2023-05-07T02:07:08.204Z,4.87
2023-05-07T02:09:34.396Z,6.43
2023-05-07T02:12:00.742Z,4.27
2023-05-07T02:14:27.019Z,6.90
2023-05-07T02:16:53.388Z,4.10
2023-05-07T02:19:21.344Z,6.30
2023-05-07T02:21:47.902Z,4.23
2023-05-07T02:24:14.141Z,5.07
2023-05-07T02:26:40.526Z,7.43
2023-05-07T02:29:06.760Z,5.57
2023-05-07T02:31:34.208Z,5.20
2023-05-07T02:34:00.592Z,8.03
2023-05-07T02:36:27.402Z,5.97
2023-05-07T02:38:53.566Z,6.10
2023-05-07T02:41:20.758Z,5.00
2023-05-07T02:43:46.948Z,6.67
2023-05-07T02:46:13.278Z,4.87
2023-05-07T02:48:39.543Z,4.10
2023-05-07T02:51:05.930Z,4.33
2023-05-07T02:53:33.080Z,6.60
2023-05-07T02:56:00.655Z,10.13
2023-05-07T02:58:27.163Z,5.13
2023-05-07T03:00:54.895Z,6.07
2023-05-07T03:03:21.075Z,7.20
2023-05-07T03:05:47.233Z,4.63
2023-05-07T03:08:13.478Z,5.07
2023-05-07T03:10:40.312Z,5.03
2023-05-07T03:13:06.787Z,5.87
2023-05-07T03:15:33.286Z,4.57
2023-05-07T03:17:59.565Z,3.80
2023-05-07T03:20:25.784Z,4.17
2023-05-07T03:22:52.163Z,3.70
2023-05-07T03:25:18.371Z,4.13
2023-05-07T03:27:45.372Z,4.30
2023-05-07T03:30:13.055Z,4.87
2023-05-07T03:32:39.452Z,4.77
2023-05-07T03:35:06.086Z,5.70
2023-05-07T03:37:32.421Z,4.30
2023-05-07T03:39:58.546Z,6.33
2023-05-07T03:42:25.093Z,2.97
2023-05-07T03:44:51.864Z,3.40
2023-05-07T03:47:18.031Z,4.40
2023-05-07T03:49:44.220Z,3.07
2023-05-07T03:52:10.402Z,3.80
2023-05-07T03:54:37.247Z,3.30
2023-05-07T03:57:03.558Z,3.50
2023-05-07T03:59:29.672Z,4.53
2023-05-07T04:01:56.559Z,3.20
2023-05-07T04:04:22.893Z,4.80
2023-05-07T04:06:49.262Z,3.30
2023-05-07T04:09:15.626Z,5.27
2023-05-07T04:11:41.857Z,3.40
2023-05-07T04:14:08.055Z,3.10
2023-05-07T04:16:35.449Z,3.97
2023-05-07T04:19:02.275Z,3.50
2023-05-07T04:21:28.609Z,4.33
2023-05-07T04:23:54.800Z,3.67
2023-05-07T04:26:21.703Z,3.30
2023-05-07T04:28:47.842Z,4.77
2023-05-07T04:31:14.005Z,7.73
2023-05-07T04:33:40.320Z,10.67
2023-05-07T04:36:07.824Z,2.77
2023-05-07T04:38:34.135Z,3.10
2023-05-07T04:41:03.904Z,3.50
2023-05-07T04:43:30.624Z,5.40
2023-05-07T04:45:56.806Z,3.37
2023-05-07T04:48:23.166Z,11.13
2023-05-07T04:50:49.399Z,5.10
2023-05-07T04:53:16.718Z,3.80
2023-05-07T04:55:42.966Z,2.83
2023-05-07T04:58:09.592Z,3.43
2023-05-07T05:00:36.160Z,4.43
2023-05-07T05:03:02.637Z,4.63
2023-05-07T05:05:28.952Z,3.77
2023-05-07T05:07:55.249Z,2.77
2023-05-07T05:10:24.652Z,3.43
2023-05-07T05:12:51.093Z,5.83
2023-05-07T05:15:17.545Z,3.00
2023-05-07T05:17:44.264Z,2.57
2023-05-07T05:20:11.122Z,2.80
2023-05-07T05:22:37.616Z,5.33
2023-05-07T05:25:04.596Z,4.03
2023-05-07T05:27:31.428Z,3.23
2023-05-07T05:29:57.592Z,5.50
2023-05-07T05:32:23.861Z,11.57
2023-05-07T05:34:50.083Z,2.60
2023-05-07T05:37:16.448Z,3.90
2023-05-07T05:39:42.727Z,3.90
2023-05-07T05:42:08.902Z,4.13
2023-05-07T05:44:35.706Z,5.37
2023-05-07T05:47:01.994Z,4.37
2023-05-07T05:49:28.240Z,2.87
2023-05-07T05:51:54.453Z,2.90
2023-05-07T05:54:20.647Z,2.83
2023-05-07T05:56:46.882Z,3.10
2023-05-07T05:59:13.255Z,2.83
2023-05-07T06:01:40.155Z,3.40
2023-05-07T06:04:06.348Z,2.67
2023-05-07T06:06:32.564Z,4.07
2023-05-07T06:08:58.775Z,4.23
2023-05-07T06:11:25.604Z,2.70
2023-05-07T06:13:51.759Z,2.57
2023-05-07T06:16:17.982Z,2.87
2023-05-07T06:18:46.514Z,4.43
2023-05-07T06:21:15.852Z,3.27
2023-05-07T06:23:42.139Z,3.10
2023-05-07T06:26:09.254Z,2.87
2023-05-07T06:28:36.180Z,4.17
2023-05-07T06:31:12.972Z,2.10
2023-05-07T06:33:39.416Z,4.63
2023-05-07T06:36:07.309Z,3.63
2023-05-07T06:38:33.603Z,3.67
2023-05-07T06:40:59.780Z,2.40
2023-05-07T06:43:25.961Z,2.70
2023-05-07T06:45:52.204Z,3.33
2023-05-07T06:48:18.408Z,2.60
2023-05-07T06:50:44.787Z,2.40
2023-05-07T06:53:11.763Z,2.30
2023-05-07T06:55:38.488Z,1.80
2023-05-07T06:58:04.787Z,2.00
2023-05-07T07:00:31.297Z,2.00
2023-05-07T07:02:57.881Z,3.23
2023-05-07T07:05:24.143Z,4.40
2023-05-07T07:07:52.910Z,1.90
2023-05-07T07:10:20.055Z,2.97
2023-05-07T07:12:46.416Z,3.90
2023-05-07T07:15:13.844Z,4.97
2023-05-07T07:17:40.307Z,2.00
2023-05-07T07:20:07.832Z,3.63
2023-05-07T07:22:34.110Z,1.73
2023-05-07T07:25:00.504Z,1.93
2023-05-07T07:27:27.315Z,1.67
2023-05-07T07:29:53.464Z,2.27
2023-05-07T07:32:19.655Z,3.37
2023-05-07T07:34:45.871Z,1.97
2023-05-07T07:37:12.438Z,1.80
2023-05-07T07:39:38.738Z,3.43
2023-05-07T07:42:05.176Z,3.20
2023-05-07T07:44:32.096Z,1.80
2023-05-07T07:46:58.336Z,2.97
2023-05-07T07:49:24.653Z,2.83
2023-05-07T07:51:51.457Z,1.83
2023-05-07T07:54:17.713Z,2.10
2023-05-07T07:56:43.985Z,2.43
2023-05-07T07:59:10.181Z,1.73
2023-05-07T08:01:37.128Z,2.17
2023-05-07T08:04:03.729Z,5.53
2023-05-07T08:06:30.118Z,1.70
2023-05-07T08:08:56.305Z,1.87
2023-05-07T08:11:22.722Z,3.73
2023-05-07T08:13:48.904Z,3.40
2023-05-07T08:16:15.447Z,3.57
2023-05-07T08:18:42.355Z,2.10
2023-05-07T08:21:08.909Z,2.10
2023-05-07T08:23:35.284Z,2.60
2023-05-07T08:26:01.563Z,5.30
2023-05-07T08:28:27.873Z,3.27
2023-05-07T08:30:54.227Z,2.30
2023-05-07T08:33:20.499Z,3.03
2023-05-07T08:35:47.384Z,1.83
2023-05-07T08:38:13.669Z,2.00
2023-05-07T08:40:41.242Z,6.37
2023-05-07T08:43:07.652Z,1.57
2023-05-07T08:45:34.575Z,1.47
2023-05-07T08:48:03.294Z,4.17
2023-05-07T08:50:29.638Z,6.27
2023-05-07T08:52:57.389Z,3.03
2023-05-07T08:55:24.821Z,6.53
2023-05-07T08:57:52.914Z,3.17
2023-05-07T09:00:19.824Z,1.90
2023-05-07T09:02:46.249Z,4.13
2023-05-07T09:05:12.668Z,2.10
2023-05-07T09:07:39.211Z,2.97
2023-05-07T09:10:07.611Z,4.47
2023-05-07T09:12:35.478Z,2.73
2023-05-07T09:15:02.554Z,2.03
2023-05-07T09:17:29.168Z,5.43
2023-05-07T09:19:55.589Z,4.03
2023-05-07T09:22:21.898Z,1.87
2023-05-07T09:24:48.750Z,2.57
2023-05-07T09:27:15.758Z,6.03
2023-05-07T09:29:42.091Z,3.73
2023-05-07T09:32:09.280Z,3.00
2023-05-07T09:34:36.521Z,3.10
2023-05-07T09:37:03.718Z,1.90
2023-05-07T09:39:39.582Z,4.27
2023-05-07T09:42:05.884Z,2.00
2023-05-07T09:44:33.286Z,5.87
2023-05-07T09:47:01.001Z,1.93
2023-05-07T09:49:30.278Z,2.83
2023-05-07T09:51:57.397Z,2.07
2023-05-07T09:54:24.270Z,5.00
2023-05-07T09:56:50.539Z,2.13
2023-05-07T09:59:17.458Z,2.50
2023-05-07T10:01:45.285Z,1.53
2023-05-07T10:04:12.026Z,2.40
2023-05-07T10:06:38.875Z,2.43
2023-05-07T10:09:06.208Z,1.70
2023-05-07T10:11:33.435Z,1.70
2023-05-07T10:14:04.252Z,1.47
2023-05-07T10:16:32.416Z,2.33
2023-05-07T10:18:59.737Z,1.57
2023-05-07T10:21:27.845Z,2.10
2023-05-07T10:23:58.376Z,1.40
2023-05-07T10:26:26.328Z,1.33
2023-05-07T10:28:56.658Z,1.20
2023-05-07T10:31:49.279Z,2.37
2023-05-07T10:34:20.165Z,1.90
2023-05-07T10:36:46.671Z,4.03
2023-05-07T10:39:13.341Z,2.47
2023-05-07T10:41:40.101Z,1.77
2023-05-07T10:44:06.445Z,1.43
2023-05-07T10:46:35.504Z,2.53
2023-05-07T10:49:11.794Z,3.63
2023-05-07T10:51:39.194Z,1.50
2023-05-07T10:54:20.423Z,1.67
2023-05-07T10:56:47.973Z,1.43
2023-05-07T10:59:34.937Z,1.40
2023-05-07T11:02:03.609Z,2.50
2023-05-07T11:04:34.975Z,3.20
2023-05-07T11:07:25.712Z,1.63
2023-05-07T11:09:56.113Z,2.67
2023-05-07T11:12:55.633Z,1.47
2023-05-07T11:15:39.605Z,5.23
2023-05-07T11:18:06.184Z,3.93
2023-05-07T11:20:55.431Z,1.40
2023-05-07T11:23:58.003Z,1.50
2023-05-07T11:26:25.256Z,1.37
2023-05-07T11:28:52.152Z,1.80
2023-05-07T11:31:22.187Z,4.37
2023-05-07T11:33:48.513Z,1.40
2023-05-07T11:36:14.847Z,5.63
2023-05-07T11:38:41.032Z,3.07
2023-05-07T11:41:08.561Z,2.23
2023-05-07T11:43:36.163Z,1.43
2023-05-07T11:46:06.975Z,4.73
2023-05-07T11:48:33.128Z,4.87
2023-05-07T11:51:01.704Z,6.27
2023-05-07T11:53:29.162Z,1.60
2023-05-07T11:55:56.308Z,2.53
2023-05-07T11:58:25.685Z,3.67
2023-05-07T12:00:52.809Z,1.37
2023-05-07T12:03:19.479Z,2.00
2023-05-07T12:05:45.961Z,2.33
2023-05-07T12:08:14.753Z,1.50
2023-05-07T12:10:41.682Z,1.30
2023-05-07T12:13:15.184Z,3.13
2023-05-07T12:15:42.293Z,2.10
2023-05-07T12:18:08.565Z,2.50
2023-05-07T12:20:35.134Z,3.37
2023-05-07T12:23:02.177Z,1.10
2023-05-07T12:25:30.890Z,1.90
2023-05-07T12:27:59.032Z,2.00
2023-05-07T12:30:25.432Z,1.37
2023-05-07T12:32:55.771Z,1.10
2023-05-07T12:35:27.660Z,5.37
2023-05-07T12:37:55.833Z,1.30
2023-05-07T12:40:24.920Z,12.70
2023-05-07T12:42:54.545Z,5.23
2023-05-07T12:45:21.283Z,5.87
2023-05-07T12:47:47.941Z,1.50
2023-05-07T12:50:15.516Z,1.30
2023-05-07T12:52:42.039Z,1.27
2023-05-07T12:55:09.669Z,2.60
2023-05-07T12:57:38.938Z,2.60
2023-05-07T13:00:06.412Z,2.13
2023-05-07T13:02:33.459Z,1.40
2023-05-07T13:04:59.767Z,1.40
2023-05-07T13:07:30.873Z,3.73
2023-05-07T13:09:57.283Z,4.50
2023-05-07T13:12:23.555Z,1.80
2023-05-07T13:14:53.104Z,4.20
2023-05-07T13:17:21.557Z,2.30
2023-05-07T13:19:48.113Z,1.57
2023-05-07T13:22:14.690Z,2.20
2023-05-07T13:24:43.849Z,4.60
2023-05-07T13:27:10.035Z,5.27
2023-05-07T13:29:36.491Z,4.67
2023-05-07T13:32:02.905Z,5.77
2023-05-07T13:34:29.213Z,9.23
2023-05-07T13:36:59.273Z,13.17
2023-05-07T13:39:25.497Z,7.50
2023-05-07T13:41:52.366Z,14.80
2023-05-07T13:44:18.705Z,6.17
2023-05-07T13:46:45.465Z,5.57
2023-05-07T13:49:12.665Z,6.57
2023-05-07T13:51:39.128Z,5.67
2023-05-07T13:54:11.227Z,5.50
2023-05-07T13:56:37.576Z,13.70
2023-05-07T13:59:04.547Z,9.60
2023-05-07T14:01:32.020Z,7.20
2023-05-07T14:03:58.353Z,8.10
2023-05-07T14:06:24.602Z,13.83
2023-05-07T14:08:51.286Z,38.17
2023-05-07T14:11:17.551Z,21.30
2023-05-07T14:13:43.764Z,12.93
2023-05-07T14:16:10.713Z,14.63
2023-05-07T14:18:37.431Z,10.27
2023-05-07T14:21:06.419Z,13.10
2023-05-07T14:23:32.730Z,10.07
2023-05-07T14:25:58.949Z,12.63
2023-05-07T14:28:25.314Z,14.83
2023-05-07T14:31:00.302Z,12.73
2023-05-07T14:33:28.067Z,14.93
2023-05-07T14:35:54.386Z,10.53
2023-05-07T14:38:20.904Z,12.30
2023-05-07T14:40:48.355Z,12.63
2023-05-07T14:43:15.048Z,11.67
2023-05-07T14:45:50.840Z,17.27
2023-05-07T14:48:21.211Z,13.43
2023-05-07T14:50:49.102Z,21.33
2023-05-07T14:53:15.902Z,12.20
2023-05-07T14:55:42.293Z,15.97
2023-05-07T14:58:18.538Z,15.03
2023-05-07T15:00:44.855Z,12.83
2023-05-07T15:03:11.547Z,13.37
2023-05-07T15:05:38.405Z,12.03
2023-05-07T15:08:05.683Z,11.33
2023-05-07T15:10:33.410Z,9.97
2023-05-07T15:12:59.684Z,10.37
2023-05-07T15:15:26.635Z,12.03
2023-05-07T15:17:52.971Z,14.30
2023-05-07T15:20:19.558Z,10.77
2023-05-07T15:22:46.182Z,7.17
2023-05-07T15:25:13.280Z,6.00
2023-05-07T15:27:39.773Z,5.30
2023-05-07T15:30:07.320Z,9.07
2023-05-07T15:32:33.511Z,8.73
2023-05-07T15:34:59.777Z,7.50
2023-05-07T15:37:28.258Z,6.10
2023-05-07T15:39:54.577Z,5.73
2023-05-07T15:42:21.792Z,7.87
2023-05-07T15:44:48.494Z,9.53
2023-05-07T15:47:14.803Z,8.47
2023-05-07T15:49:43.943Z,9.57
2023-05-07T15:52:11.272Z,9.17
2023-05-07T15:54:37.938Z,7.57
2023-05-07T15:57:06.251Z,10.10
2023-05-07T15:59:33.423Z,11.03
2023-05-07T16:01:59.950Z,7.97
2023-05-07T16:04:31.155Z,9.43
2023-05-07T16:06:57.728Z,10.13
2023-05-07T16:09:25.275Z,11.50
2023-05-07T16:11:54.479Z,7.33
2023-05-07T16:14:21.784Z,7.30
2023-05-07T16:16:48.773Z,11.37
2023-05-07T16:19:16.182Z,9.43
2023-05-07T16:21:42.822Z,8.17
2023-05-07T16:24:12.086Z,6.63
2023-05-07T16:26:38.281Z,6.87
2023-05-07T16:29:06.067Z,8.00
2023-05-07T16:31:32.768Z,8.83
2023-05-07T16:34:00.368Z,7.87
2023-05-07T16:36:27.692Z,7.97
2023-05-07T16:38:54.318Z,8.17
2023-05-07T16:41:21.062Z,8.77
2023-05-07T16:43:47.329Z,6.07
2023-05-07T16:46:14.081Z,14.43
2023-05-07T16:48:40.335Z,11.23
2023-05-07T16:51:07.665Z,7.47
2023-05-07T16:53:35.003Z,6.27
2023-05-07T16:56:04.620Z,6.60
2023-05-07T16:58:32.466Z,7.20
2023-05-07T17:00:58.649Z,8.33
2023-05-07T17:03:25.294Z,5.70
2023-05-07T17:05:51.964Z,7.40
2023-05-07T17:08:19.220Z,6.83
2023-05-07T17:10:45.789Z,6.97
2023-05-07T17:13:12.530Z,7.47
2023-05-07T17:15:40.472Z,8.63
2023-05-07T17:18:06.719Z,8.67
2023-05-07T17:20:34.374Z,8.23
2023-05-07T17:23:00.534Z,8.43
2023-05-07T17:25:27.533Z,8.67
2023-05-07T17:27:53.815Z,8.90
2023-05-07T17:30:20.722Z,5.70
2023-05-07T17:32:47.588Z,5.50
2023-05-07T17:35:13.832Z,7.17
2023-05-07T17:37:40.874Z,9.17
2023-05-07T17:40:08.184Z,7.90
2023-05-07T17:42:34.991Z,5.47
2023-05-07T17:45:01.338Z,5.20
2023-05-07T17:47:27.581Z,5.70
2023-05-07T17:49:53.984Z,8.67
2023-05-07T17:52:20.220Z,7.83
2023-05-07T17:54:46.649Z,8.13
2023-05-07T17:57:12.863Z,6.37
2023-05-07T17:59:39.824Z,6.93
2023-05-07T18:02:06.242Z,9.43
2023-05-07T18:04:32.550Z,8.00
2023-05-07T18:06:58.796Z,6.23
2023-05-07T18:09:25.086Z,8.30
2023-05-07T18:11:51.346Z,5.93
2023-05-07T18:14:17.623Z,7.10
2023-05-07T18:16:44.712Z,6.10
2023-05-07T18:19:14.197Z,6.57
2023-05-07T18:21:43.762Z,5.80
2023-05-07T18:24:10.448Z,5.70
2023-05-07T18:26:36.753Z,5.60
2023-05-07T18:29:02.961Z,6.63
2023-05-07T18:31:29.172Z,6.70
2023-05-07T18:33:56.825Z,6.93
2023-05-07T18:36:24.283Z,8.17
2023-05-07T18:38:51.666Z,7.93
2023-05-07T18:41:18.066Z,6.37
2023-05-07T18:43:44.683Z,9.63
2023-05-07T18:46:13.413Z,7.37
2023-05-07T18:48:39.912Z,9.80
2023-05-07T18:51:07.700Z,10.33
2023-05-07T18:53:34.090Z,8.27
2023-05-07T18:56:00.389Z,6.47
2023-05-07T18:58:26.789Z,7.10
2023-05-07T19:00:53.055Z,6.47
2023-05-07T19:03:19.164Z,6.60
2023-05-07T19:05:45.697Z,7.13
2023-05-07T19:08:14.943Z,6.90
2023-05-07T19:10:42.927Z,5.97
2023-05-07T19:13:09.336Z,11.10
2023-05-07T19:15:35.602Z,8.67
2023-05-07T19:18:03.083Z,7.97
2023-05-07T19:20:29.611Z,8.03
2023-05-07T19:22:56.064Z,7.37
2023-05-07T19:25:22.973Z,7.43
2023-05-07T19:27:50.174Z,7.63
2023-05-07T19:30:16.837Z,15.17
2023-05-07T19:32:43.200Z,10.43
2023-05-07T19:35:09.878Z,10.40
2023-05-07T19:37:36.379Z,11.17
2023-05-07T19:40:05.737Z,9.70
2023-05-07T19:42:33.462Z,8.43
2023-05-07T19:45:00.449Z,8.23
2023-05-07T19:47:26.840Z,10.20
2023-05-07T19:49:53.434Z,8.63
2023-05-07T19:52:22.551Z,10.93
2023-05-07T19:54:48.967Z,8.77
2023-05-07T19:57:16.790Z,8.03
2023-05-07T19:59:43.843Z,8.83
2023-05-07T20:02:11.300Z,7.43
2023-05-07T20:04:37.784Z,10.27
2023-05-07T20:07:04.231Z,9.07
2023-05-07T20:09:30.612Z,9.37
2023-05-07T20:11:57.077Z,11.33
2023-05-07T20:14:23.454Z,7.67
2023-05-07T20:16:50.343Z,10.63
2023-05-07T20:19:18.829Z,9.03
2023-05-07T20:21:45.321Z,11.30
2023-05-07T20:24:11.506Z,10.73
2023-05-07T20:26:38.146Z,8.53
2023-05-07T20:29:04.758Z,9.27
2023-05-07T20:31:35.007Z,8.17
2023-05-07T20:34:02.541Z,14.13
2023-05-07T20:36:30.762Z,8.40
2023-05-07T20:38:56.968Z,10.30
2023-05-07T20:41:24.266Z,8.67
2023-05-07T20:43:50.689Z,14.67
2023-05-07T20:46:16.938Z,7.53
2023-05-07T20:48:43.290Z,7.77
2023-05-07T20:51:12.863Z,7.57
2023-05-07T20:53:39.927Z,7.23
2023-05-07T20:56:06.882Z,8.77
2023-05-07T20:58:33.138Z,7.90
2023-05-07T21:00:59.380Z,9.00
2023-05-07T21:03:25.685Z,8.17
2023-05-07T21:05:52.163Z,7.60
2023-05-07T21:08:19.646Z,8.33
2023-05-07T21:10:46.554Z,6.90
2023-05-07T21:13:12.807Z,13.10
2023-05-07T21:15:39.965Z,10.63
2023-05-07T21:18:06.440Z,10.43
2023-05-07T21:20:32.726Z,10.27
2023-05-07T21:22:59.855Z,7.47
2023-05-07T21:25:26.871Z,11.10
2023-05-07T21:27:53.360Z,8.00
2023-05-07T21:30:19.919Z,8.17
2023-05-07T21:32:46.512Z,12.00
2023-05-07T21:35:12.893Z,9.30
2023-05-07T21:37:39.159Z,10.50
2023-05-07T21:40:06.850Z,10.30
2023-05-07T21:42:33.798Z,7.93
2023-05-07T21:45:00.201Z,8.73
2023-05-07T21:47:26.693Z,9.93
2023-05-07T21:49:53.212Z,13.10
2023-05-07T21:52:19.996Z,11.53
2023-05-07T21:54:46.225Z,8.67
2023-05-07T21:57:12.447Z,12.27
2023-05-07T21:59:39.416Z,10.47
2023-05-07T22:02:06.038Z,8.40
2023-05-07T22:04:32.278Z,9.47
2023-05-07T22:06:58.456Z,7.67
2023-05-07T22:09:24.645Z,8.97
2023-05-07T22:11:50.973Z,10.43
2023-05-07T22:14:18.972Z,11.47
2023-05-07T22:16:46.686Z,10.53
2023-05-07T22:19:14.312Z,11.77
2023-05-07T22:21:40.547Z,9.57
2023-05-07T22:24:07.324Z,18.83
2023-05-07T22:26:33.606Z,8.00
2023-05-07T22:28:59.855Z,10.80
2023-05-07T22:31:26.234Z,9.80
2023-05-07T22:33:53.107Z,8.90
2023-05-07T22:36:19.375Z,11.90
2023-05-07T22:38:45.579Z,9.67
2023-05-07T22:41:11.775Z,11.80
2023-05-07T22:43:38.754Z,9.20
2023-05-07T22:46:05.175Z,10.17
2023-05-07T22:48:32.460Z,13.77
2023-05-07T22:50:59.341Z,11.63
2023-05-07T22:53:25.920Z,13.60
2023-05-07T22:55:52.782Z,9.50
2023-05-07T22:58:19.097Z,10.87
2023-05-07T23:00:45.377Z,10.83
2023-05-07T23:03:11.910Z,9.53
2023-05-07T23:05:38.208Z,10.83
2023-05-07T23:08:05.745Z,10.93
2023-05-07T23:10:33.759Z,11.47
2023-05-07T23:13:00.503Z,14.67
2023-05-07T23:15:27.772Z,16.03
2023-05-07T23:17:54.070Z,10.23
2023-05-07T23:20:20.613Z,13.13
2023-05-07T23:22:46.932Z,11.67
2023-05-07T23:25:13.852Z,10.40
2023-05-07T23:27:40.060Z,14.53
2023-05-07T23:30:07.925Z,9.03
2023-05-07T23:32:34.231Z,9.00
2023-05-07T23:35:00.462Z,10.67
2023-05-07T23:37:26.682Z,10.57
2023-05-07T23:39:53.491Z,9.60
2023-05-07T23:42:20.431Z,15.03
2023-05-07T23:44:46.572Z,9.53
2023-05-07T23:47:12.781Z,8.73
2023-05-07T23:49:38.989Z,9.00
2023-05-07T23:52:05.172Z,11.30
2023-05-07T23:54:31.554Z,13.17
2023-05-07T23:56:57.795Z,9.90
2023-05-07T23:59:24.613Z,8.53
